createdAt,value
2023-02-08T00:01:29.656Z,12.15
2023-02-08T00:03:57.887Z,13.88
2023-02-08T00:06:26.009Z,12.60
2023-02-08T00:08:54.214Z,14.73
2023-02-08T00:11:23.390Z,12.10
2023-02-08T00:13:51.352Z,13.70
2023-02-08T00:16:20.034Z,11.95
2023-02-08T00:18:48.430Z,13.50
2023-02-08T00:21:18.850Z,12.90
2023-02-08T00:23:47.462Z,12.18
2023-02-08T00:26:16.830Z,11.82
2023-02-08T00:28:46.822Z,13.88
2023-02-08T00:31:18.857Z,12.15
2023-02-08T00:33:47.003Z,14.68
2023-02-08T00:36:15.402Z,13.75
2023-02-08T00:38:43.861Z,14.00
2023-02-08T00:41:12.205Z,14.13
2023-02-08T00:43:40.174Z,12.77
2023-02-08T00:46:09.840Z,12.45
2023-02-08T00:48:38.674Z,12.43
2023-02-08T00:51:10.579Z,12.40
2023-02-08T00:53:41.920Z,13.00
2023-02-08T00:56:12.320Z,12.32
2023-02-08T00:58:42.034Z,13.35
2023-02-08T01:01:10.704Z,13.35
2023-02-08T01:03:42.746Z,12.95
2023-02-08T01:06:16.070Z,13.18
2023-02-08T01:08:44.782Z,13.48
2023-02-08T01:11:21.887Z,12.18
2023-02-08T01:13:51.046Z,13.18
2023-02-08T01:16:23.729Z,11.98
2023-02-08T01:18:55.777Z,13.70
2023-02-08T01:21:31.622Z,11.30
2023-02-08T01:24:00.899Z,10.80
2023-02-08T01:26:32.166Z,12.40
2023-02-08T01:29:01.097Z,12.50
2023-02-08T01:31:33.502Z,12.73
2023-02-08T01:34:02.860Z,11.77
2023-02-08T01:36:32.730Z,11.77
2023-02-08T01:39:03.310Z,11.73
2023-02-08T01:41:38.188Z,10.55
2023-02-08T01:44:12.304Z,12.00
2023-02-08T01:46:47.459Z,12.63
2023-02-08T01:49:27.881Z,10.38
2023-02-08T01:52:14.628Z,12.35
2023-02-08T01:54:56.007Z,12.23
2023-02-08T01:57:25.459Z,12.75
2023-02-08T02:00:14.273Z,12.63
2023-02-08T02:02:44.476Z,11.98
2023-02-08T02:05:13.794Z,10.77
2023-02-08T02:07:42.918Z,10.85
2023-02-08T02:10:28.491Z,10.90
2023-02-08T02:13:02.098Z,12.18
2023-02-08T02:15:30.145Z,10.82
2023-02-08T02:17:59.914Z,11.02
2023-02-08T02:21:03.957Z,11.05
2023-02-08T02:24:02.434Z,11.10
2023-02-08T02:26:44.593Z,11.20
2023-02-08T02:29:37.014Z,10.57
2023-02-08T02:32:17.499Z,11.32
2023-02-08T02:35:14.894Z,10.98
2023-02-08T02:38:07.800Z,11.02
2023-02-08T02:41:36.954Z,10.48
2023-02-08T02:44:34.553Z,10.00
2023-02-08T02:47:19.516Z,11.25
2023-02-08T02:50:14.589Z,11.23
2023-02-08T02:53:12.722Z,11.52
2023-02-08T02:55:49.034Z,10.18
2023-02-08T02:58:21.036Z,11.02
2023-02-08T03:00:58.554Z,13.20
2023-02-08T03:03:31.392Z,10.63
2023-02-08T03:06:19.482Z,10.90
2023-02-08T03:09:09.041Z,12.27
2023-02-08T03:11:40.166Z,10.48
2023-02-08T03:14:14.222Z,11.38
2023-02-08T03:17:11.421Z,10.73
2023-02-08T03:19:50.570Z,9.68
2023-02-08T03:22:29.383Z,10.13
2023-02-08T03:25:20.281Z,12.30
2023-02-08T03:28:28.492Z,11.77
2023-02-08T03:31:41.860Z,12.02
2023-02-08T03:34:21.329Z,9.48
2023-02-08T03:37:10.125Z,11.45
2023-02-08T03:39:40.242Z,10.30
2023-02-08T03:42:24.469Z,10.48
2023-02-08T03:45:07.977Z,11.40
2023-02-08T03:47:42.566Z,10.25
2023-02-08T03:50:17.581Z,10.40
2023-02-08T03:52:49.218Z,11.63
2023-02-08T03:55:32.080Z,10.20
2023-02-08T03:58:13.042Z,10.85
2023-02-08T04:00:46.395Z,10.87
2023-02-08T04:03:21.247Z,10.32
2023-02-08T04:05:50.845Z,11.13
2023-02-08T04:08:20.872Z,9.88
2023-02-08T04:10:50.108Z,10.32
2023-02-08T04:13:19.142Z,9.35
2023-02-08T04:15:47.224Z,10.73
2023-02-08T04:18:15.389Z,9.38
2023-02-08T04:20:43.583Z,10.05
2023-02-08T04:23:11.500Z,9.48
2023-02-08T04:25:39.491Z,8.68
2023-02-08T04:28:07.605Z,9.80
2023-02-08T04:30:35.807Z,9.55
2023-02-08T04:33:04.043Z,9.30
2023-02-08T04:35:32.132Z,9.02
2023-02-08T04:38:00.038Z,8.73
2023-02-08T04:40:28.387Z,9.20
2023-02-08T04:42:56.684Z,10.07
2023-02-08T04:45:25.412Z,8.90
2023-02-08T04:47:54.131Z,10.02
2023-02-08T04:50:22.125Z,8.60
2023-02-08T04:52:50.112Z,9.93
2023-02-08T04:55:18.156Z,8.60
2023-02-08T04:57:46.227Z,10.15
2023-02-08T05:00:14.951Z,8.82
2023-02-08T05:02:42.965Z,9.70
2023-02-08T05:05:11.421Z,7.80
2023-02-08T05:07:39.552Z,8.48
2023-02-08T05:10:08.227Z,8.48
2023-02-08T05:12:36.549Z,7.95
2023-02-08T05:15:05.726Z,8.50
2023-02-08T05:17:33.717Z,7.22
2023-02-08T05:20:01.811Z,8.50
2023-02-08T05:22:30.008Z,8.40
2023-02-08T05:24:58.408Z,8.48
2023-02-08T05:27:27.078Z,9.35
2023-02-08T05:29:55.749Z,10.05
2023-02-08T05:32:25.023Z,9.02
2023-02-08T05:34:53.619Z,9.98
2023-02-08T05:37:21.967Z,8.40
2023-02-08T05:39:50.170Z,9.57
2023-02-08T05:42:18.229Z,9.77
2023-02-08T05:44:46.353Z,10.43
2023-02-08T05:47:14.501Z,7.72
2023-02-08T05:49:42.768Z,7.38
2023-02-08T05:52:11.191Z,7.43
2023-02-08T05:54:39.250Z,6.65
2023-02-08T05:57:07.842Z,7.57
2023-02-08T05:59:35.960Z,7.38
2023-02-08T06:02:04.838Z,7.43
2023-02-08T06:04:33.167Z,7.00
2023-02-08T06:07:01.464Z,7.18
2023-02-08T06:09:29.606Z,7.88
2023-02-08T06:11:57.922Z,5.82
2023-02-08T06:14:26.315Z,6.63
2023-02-08T06:16:54.827Z,7.72
2023-02-08T06:19:23.083Z,5.82
2023-02-08T06:21:51.289Z,8.43
2023-02-08T06:24:19.891Z,6.55
2023-02-08T06:26:48.678Z,9.60
2023-02-08T06:29:16.866Z,7.47
2023-02-08T06:31:45.336Z,8.48
2023-02-08T06:34:13.603Z,6.97
2023-02-08T06:36:41.895Z,7.80
2023-02-08T06:39:10.083Z,8.82
2023-02-08T06:41:38.102Z,8.32
2023-02-08T06:44:06.248Z,8.05
2023-02-08T06:46:34.782Z,7.50
2023-02-08T06:49:03.230Z,6.38
2023-02-08T06:51:31.288Z,6.85
2023-02-08T06:53:59.450Z,6.78
2023-02-08T06:56:27.588Z,5.97
2023-02-08T06:58:57.506Z,6.65
2023-02-08T07:01:25.841Z,6.78
2023-02-08T07:03:54.274Z,7.38
2023-02-08T07:06:22.285Z,7.05
2023-02-08T07:08:50.515Z,6.82
2023-02-08T07:11:20.754Z,6.45
2023-02-08T07:13:51.431Z,6.95
2023-02-08T07:16:21.870Z,5.75
2023-02-08T07:18:49.991Z,8.68
2023-02-08T07:21:18.341Z,6.55
2023-02-08T07:23:46.553Z,6.80
2023-02-08T07:26:15.253Z,5.47
2023-02-08T07:28:44.325Z,6.72
2023-02-08T07:31:16.764Z,6.20
2023-02-08T07:33:45.497Z,6.97
2023-02-08T07:36:13.735Z,7.03
2023-02-08T07:38:41.869Z,7.57
2023-02-08T07:41:13.494Z,7.40
2023-02-08T07:46:18.893Z,6.13
2023-02-08T07:48:49.338Z,7.13
2023-02-08T07:51:17.551Z,6.50
2023-02-08T07:53:46.008Z,6.63
2023-02-08T07:56:14.244Z,5.75
2023-02-08T07:58:42.510Z,6.68
2023-02-08T08:01:23.684Z,7.28
2023-02-08T08:03:52.957Z,7.15
2023-02-08T08:06:23.695Z,6.68
2023-02-08T08:08:52.223Z,7.72
2023-02-08T08:11:22.379Z,6.97
2023-02-08T08:13:51.792Z,7.90
2023-02-08T08:16:20.788Z,7.47
2023-02-08T08:18:49.153Z,8.50
2023-02-08T08:21:17.858Z,7.97
2023-02-08T08:23:46.231Z,8.30
2023-02-08T08:26:18.661Z,7.72
2023-02-08T08:28:48.400Z,8.27
2023-02-08T08:31:23.107Z,7.43
2023-02-08T08:33:51.540Z,9.00
2023-02-08T08:36:19.861Z,7.65
2023-02-08T08:38:48.256Z,8.35
2023-02-08T08:41:23.286Z,8.02
2023-02-08T08:43:51.832Z,8.50
2023-02-08T08:46:20.666Z,7.20
2023-02-08T08:48:48.873Z,7.88
2023-02-08T08:51:17.318Z,8.07
2023-02-08T08:53:45.542Z,9.77
2023-02-08T08:56:13.725Z,8.65
2023-02-08T08:58:43.716Z,8.88
2023-02-08T09:01:14.315Z,9.23
2023-02-08T09:03:42.572Z,10.15
2023-02-08T09:06:11.044Z,9.70
2023-02-08T09:08:39.478Z,8.38
2023-02-08T09:11:13.837Z,8.80
2023-02-08T09:13:42.904Z,8.70
2023-02-08T09:16:18.126Z,7.72
2023-02-08T09:18:46.679Z,9.25
2023-02-08T09:21:18.473Z,9.32
2023-02-08T09:26:21.954Z,9.02
2023-02-08T09:28:50.279Z,10.02
2023-02-08T09:31:23.823Z,10.10
2023-02-08T09:33:54.263Z,10.18
2023-02-08T09:36:25.351Z,7.97
2023-02-08T09:39:02.995Z,9.48
2023-02-08T09:42:11.792Z,9.50
2023-02-08T09:44:57.334Z,8.60
2023-02-08T09:47:33.112Z,10.25
2023-02-08T09:50:21.590Z,10.18
2023-02-08T09:52:59.061Z,10.77
2023-02-08T09:55:46.405Z,10.07
2023-02-08T09:58:42.435Z,10.07
2023-02-08T10:01:31.656Z,10.27
2023-02-08T10:04:34.048Z,10.82
2023-02-08T10:07:02.673Z,10.32
2023-02-08T10:09:31.432Z,10.65
2023-02-08T10:12:14.506Z,10.40
2023-02-08T10:15:12.011Z,11.40
2023-02-08T10:18:08.841Z,10.65
2023-02-08T10:21:02.016Z,10.10
2023-02-08T10:23:36.152Z,10.60
2023-02-08T10:26:32.747Z,10.15
2023-02-08T10:29:32.086Z,10.93
2023-02-08T10:32:08.514Z,12.70
2023-02-08T10:35:06.094Z,11.48
2023-02-08T10:37:40.005Z,10.80
2023-02-08T10:40:38.704Z,11.27
2023-02-08T10:43:27.527Z,11.10
2023-02-08T10:46:16.469Z,11.25
2023-02-08T10:49:10.524Z,11.60
2023-02-08T10:51:39.333Z,9.45
2023-02-08T10:54:14.303Z,10.23
2023-02-08T10:57:03.559Z,10.75
2023-02-08T10:59:51.370Z,9.70
2023-02-08T11:02:35.004Z,9.30
2023-02-08T11:05:05.043Z,9.15
2023-02-08T11:07:36.430Z,8.02
2023-02-08T11:10:26.047Z,9.48
2023-02-08T11:13:18.285Z,10.00
2023-02-08T11:15:59.424Z,9.68
2023-02-08T11:21:39.786Z,9.05
2023-02-08T11:24:39.992Z,10.50
2023-02-08T11:27:29.874Z,9.98
2023-02-08T11:30:16.364Z,9.70
2023-02-08T11:33:09.598Z,9.93
2023-02-08T11:35:38.669Z,9.45
2023-02-08T11:38:07.336Z,9.52
2023-02-08T11:40:44.978Z,9.57
2023-02-08T11:43:30.476Z,10.90
2023-02-08T11:46:01.408Z,10.35
2023-02-08T11:48:51.611Z,9.48
2023-02-08T11:51:38.088Z,10.30
2023-02-08T11:54:07.041Z,11.27
2023-02-08T11:56:36.024Z,10.20
2023-02-08T11:59:19.870Z,10.63
2023-02-08T12:01:48.332Z,11.43
2023-02-08T12:04:18.273Z,10.80
2023-02-08T12:07:12.478Z,10.75
2023-02-08T12:10:37.997Z,10.93
2023-02-08T12:13:24.998Z,10.73
2023-02-08T12:16:05.494Z,10.75
2023-02-08T12:18:53.989Z,7.95
2023-02-08T12:21:28.624Z,7.63
2023-02-08T12:24:07.217Z,10.00
2023-02-08T12:26:40.994Z,8.82
2023-02-08T12:30:04.220Z,10.18
2023-02-08T12:32:56.187Z,9.73
2023-02-08T12:39:20.084Z,7.70
2023-02-08T12:42:22.125Z,9.55
2023-02-08T12:45:22.716Z,10.00
2023-02-08T12:48:49.735Z,9.52
2023-02-08T12:51:30.251Z,9.90
2023-02-08T12:54:09.614Z,10.02
2023-02-08T12:56:53.569Z,8.80
2023-02-08T12:59:45.037Z,9.07
2023-02-08T13:02:32.255Z,8.85
2023-02-08T13:05:06.943Z,9.75
2023-02-08T13:07:41.862Z,9.15
2023-02-08T13:10:39.372Z,8.73
2023-02-08T13:13:24.673Z,9.20
2023-02-08T13:16:09.547Z,10.82
2023-02-08T13:18:45.012Z,10.88
2023-02-08T13:21:31.136Z,10.25
2023-02-08T13:24:00.648Z,9.80
2023-02-08T13:26:34.095Z,9.30
2023-02-08T13:29:03.917Z,10.13
2023-02-08T13:31:41.052Z,9.48
2023-02-08T13:34:36.539Z,9.15
2023-02-08T13:37:25.198Z,10.57
2023-02-08T13:40:22.017Z,10.95
2023-02-08T13:43:00.226Z,11.20
2023-02-08T13:45:45.831Z,10.45
2023-02-08T13:48:25.819Z,9.77
2023-02-08T13:50:56.961Z,11.15
2023-02-08T13:53:41.076Z,9.30
2023-02-08T13:56:34.025Z,10.13
2023-02-08T13:59:02.599Z,10.23
2023-02-08T14:02:13.021Z,9.30
2023-02-08T14:04:46.871Z,10.75
2023-02-08T14:07:33.115Z,10.55
2023-02-08T14:10:09.607Z,9.60
2023-02-08T14:12:57.414Z,9.20
2023-02-08T14:15:34.948Z,9.90
2023-02-08T14:18:04.618Z,10.40
2023-02-08T14:20:40.533Z,11.18
2023-02-08T14:23:27.652Z,11.85
2023-02-08T14:25:58.500Z,12.38
2023-02-08T14:28:35.901Z,11.27
2023-02-08T14:31:08.935Z,13.48
2023-02-08T14:33:57.412Z,13.15
2023-02-08T14:36:38.947Z,11.27
2023-02-08T14:42:05.772Z,12.63
2023-02-08T14:44:43.603Z,12.63
2023-02-08T14:47:24.985Z,11.05
2023-02-08T14:50:16.724Z,12.02
2023-02-08T14:53:13.237Z,13.60
2023-02-08T14:56:01.122Z,11.52
2023-02-08T14:58:38.352Z,11.95
2023-02-08T15:01:28.778Z,12.05
2023-02-08T15:04:02.522Z,13.15
2023-02-08T15:06:37.881Z,12.60
2023-02-08T15:09:14.136Z,12.68
2023-02-08T15:11:42.768Z,14.38
2023-02-08T15:14:21.530Z,13.93
2023-02-08T15:16:50.938Z,15.15
2023-02-08T15:19:39.557Z,15.07
2023-02-08T15:22:42.822Z,16.05
2023-02-08T15:25:30.963Z,16.42
2023-02-08T15:28:20.273Z,16.92
2023-02-08T15:31:05.736Z,18.17
2023-02-08T15:33:34.772Z,14.73
2023-02-08T15:36:21.152Z,15.52
2023-02-08T15:38:49.646Z,17.38
2023-02-08T15:41:29.659Z,16.08
2023-02-08T15:44:07.115Z,17.05
2023-02-08T15:46:36.708Z,15.60
2023-02-08T15:49:04.928Z,15.68
2023-02-08T15:51:33.944Z,17.42
2023-02-08T15:54:03.235Z,18.25
2023-02-08T15:56:39.497Z,18.42
2023-02-08T15:59:21.617Z,30.40
2023-02-08T16:01:51.496Z,24.85
2023-02-08T16:04:20.294Z,20.42
2023-02-08T16:07:00.068Z,23.73
2023-02-08T16:09:30.321Z,21.02
2023-02-08T16:12:01.470Z,20.63
2023-02-08T16:14:32.843Z,22.40
2023-02-08T16:17:46.467Z,20.73
2023-02-08T16:20:38.415Z,26.88
2023-02-08T16:23:33.566Z,28.40
2023-02-08T16:26:28.580Z,29.85
2023-02-08T16:29:07.424Z,24.13
2023-02-08T16:31:36.242Z,23.10
2023-02-08T16:34:08.900Z,26.17
2023-02-08T16:36:49.842Z,24.60
2023-02-08T16:39:23.738Z,23.33
2023-02-08T16:42:14.410Z,36.30
2023-02-08T16:45:01.626Z,27.67
2023-02-08T16:47:53.179Z,29.08
2023-02-08T16:50:27.721Z,35.40
2023-02-08T16:53:01.967Z,82.38
2023-02-08T16:55:37.375Z,38.95
2023-02-08T16:58:05.929Z,34.75
2023-02-08T17:00:36.049Z,32.92
2023-02-08T17:03:04.629Z,34.30
2023-02-08T17:05:38.567Z,38.75
2023-02-08T17:08:13.296Z,34.78
2023-02-08T17:10:42.779Z,45.08
2023-02-08T17:13:19.979Z,43.50
2023-02-08T17:15:51.281Z,51.33
2023-02-08T17:18:21.644Z,44.85
2023-02-08T17:20:58.530Z,44.45
2023-02-08T17:23:27.652Z,44.60
2023-02-08T17:25:57.366Z,43.22
2023-02-08T17:28:27.511Z,42.15
2023-02-08T17:30:59.104Z,44.63
2023-02-08T17:33:29.717Z,39.00
2023-02-08T17:35:58.635Z,40.40
2023-02-08T17:38:28.924Z,43.70
2023-02-08T17:41:00.748Z,47.38
2023-02-08T17:45:58.122Z,48.03
2023-02-08T17:48:27.636Z,45.50
2023-02-08T17:50:56.640Z,48.38
2023-02-08T17:53:25.242Z,48.58
2023-02-08T17:55:53.733Z,48.55
2023-02-08T17:58:23.323Z,45.63
2023-02-08T18:00:51.984Z,46.85
2023-02-08T18:03:21.771Z,51.42
2023-02-08T18:05:57.888Z,50.88
2023-02-08T18:08:27.344Z,48.47
2023-02-08T18:10:55.750Z,53.58
2023-02-08T18:13:23.947Z,51.85
2023-02-08T18:15:53.967Z,54.00
2023-02-08T18:18:22.884Z,54.30
2023-02-08T18:20:54.125Z,53.05
2023-02-08T18:23:23.306Z,49.63
2023-02-08T18:26:03.256Z,50.20
2023-02-08T18:28:32.379Z,42.08
2023-02-08T18:31:10.751Z,37.40
2023-02-08T18:33:39.148Z,35.95
2023-02-08T18:36:11.888Z,39.47
2023-02-08T18:38:46.002Z,37.15
2023-02-08T18:41:23.739Z,37.78
2023-02-08T18:43:53.979Z,37.85
2023-02-08T18:46:25.803Z,36.40
2023-02-08T18:48:55.363Z,40.22
2023-02-08T18:51:25.880Z,36.35
2023-02-08T18:53:55.942Z,40.50
2023-02-08T18:56:27.795Z,37.33
2023-02-08T18:59:00.868Z,37.20
2023-02-08T19:01:29.972Z,40.10
2023-02-08T19:03:59.197Z,46.08
2023-02-08T19:06:31.824Z,45.77
2023-02-08T19:09:02.953Z,46.85
2023-02-08T19:11:40.517Z,47.60
2023-02-08T19:14:13.696Z,49.65
2023-02-08T19:16:46.579Z,49.78
2023-02-08T19:19:16.603Z,44.13
2023-02-08T19:21:46.184Z,39.67
2023-02-08T19:24:15.425Z,35.83
2023-02-08T19:26:44.165Z,35.67
2023-02-08T19:29:16.930Z,33.60
2023-02-08T19:31:45.692Z,32.67
2023-02-08T19:34:14.355Z,34.83
2023-02-08T19:36:51.882Z,36.50
2023-02-08T19:39:25.063Z,35.17
2023-02-08T19:41:55.142Z,35.80
2023-02-08T19:44:23.796Z,32.90
2023-02-08T19:46:55.919Z,36.07
2023-02-08T19:49:26.314Z,33.53
2023-02-08T19:51:55.312Z,34.80
2023-02-08T19:54:24.062Z,32.13
2023-02-08T19:56:54.908Z,33.97
2023-02-08T19:59:28.573Z,33.55
2023-02-08T20:01:57.121Z,33.33
2023-02-08T20:04:25.216Z,32.53
2023-02-08T20:06:55.058Z,38.63
2023-02-08T20:09:23.857Z,65.40
2023-02-08T20:11:57.715Z,37.50
2023-02-08T20:14:34.037Z,32.13
2023-02-08T20:17:03.952Z,34.20
2023-02-08T20:19:35.819Z,45.27
2023-02-08T20:22:05.297Z,64.50
2023-02-08T20:24:34.073Z,33.77
2023-02-08T20:27:02.684Z,30.50
2023-02-08T20:29:33.099Z,41.37
2023-02-08T20:32:02.067Z,39.23
2023-02-08T20:34:30.782Z,39.77
2023-02-08T20:37:08.222Z,37.88
2023-02-08T20:39:39.370Z,36.90
2023-02-08T20:42:08.357Z,35.38
2023-02-08T20:44:37.715Z,36.17
2023-02-08T20:47:06.500Z,37.70
2023-02-08T20:49:34.905Z,34.63
2023-02-08T20:52:04.074Z,34.73
2023-02-08T20:54:32.640Z,40.87
2023-02-08T20:57:01.411Z,38.53
2023-02-08T20:59:30.140Z,36.33
2023-02-08T21:01:58.640Z,45.93
2023-02-08T21:04:27.615Z,34.23
2023-02-08T21:06:55.931Z,37.13
2023-02-08T21:09:25.697Z,33.77
2023-02-08T21:11:54.777Z,42.97
2023-02-08T21:14:23.728Z,42.80
2023-02-08T21:16:56.817Z,45.73
2023-02-08T21:19:29.231Z,40.80
2023-02-08T21:22:01.493Z,39.70
2023-02-08T21:24:31.128Z,45.40
2023-02-08T21:26:59.944Z,45.73
2023-02-08T21:29:29.490Z,48.33
2023-02-08T21:31:58.936Z,39.57
2023-02-08T21:34:27.925Z,41.83
2023-02-08T21:36:56.893Z,38.63
2023-02-08T21:39:25.763Z,33.97
2023-02-08T21:41:55.735Z,38.20
2023-02-08T21:44:24.566Z,38.10
2023-02-08T21:46:53.301Z,44.37
2023-02-08T21:49:40.919Z,35.97
2023-02-08T21:52:30.159Z,27.80
2023-02-08T21:54:59.517Z,39.97
2023-02-08T21:57:31.347Z,47.37
2023-02-08T22:00:01.593Z,45.63
2023-02-08T22:02:31.738Z,42.30
2023-02-08T22:05:02.504Z,36.33
2023-02-08T22:07:43.432Z,43.33
2023-02-08T22:10:14.947Z,42.10
2023-02-08T22:12:43.944Z,39.73
2023-02-08T22:15:15.788Z,65.67
2023-02-08T22:17:44.804Z,51.70
2023-02-08T22:20:15.227Z,44.17
2023-02-08T22:22:43.828Z,47.92
2023-02-08T22:25:12.971Z,47.60
2023-02-08T22:27:41.353Z,48.13
2023-02-08T22:30:13.118Z,36.47
2023-02-08T22:32:43.186Z,44.43
2023-02-08T22:35:17.005Z,44.47
2023-02-08T22:37:46.098Z,52.07
2023-02-08T22:40:14.660Z,40.47
2023-02-08T22:42:46.438Z,41.13
2023-02-08T22:45:15.222Z,42.73
2023-02-08T22:47:46.099Z,52.13
2023-02-08T22:50:15.434Z,47.83
2023-02-08T22:52:44.079Z,40.13
2023-02-08T22:55:12.576Z,53.20
2023-02-08T22:57:43.736Z,50.47
2023-02-08T23:00:15.207Z,49.50
2023-02-08T23:02:43.985Z,51.78
2023-02-08T23:05:12.758Z,46.20
2023-02-08T23:07:41.380Z,47.20
2023-02-08T23:10:11.573Z,48.07
2023-02-08T23:12:40.229Z,41.25
2023-02-08T23:15:11.772Z,43.37
2023-02-08T23:17:40.026Z,35.30
2023-02-08T23:20:10.368Z,47.17
2023-02-08T23:22:39.272Z,74.07
2023-02-08T23:25:08.494Z,55.00
2023-02-08T23:27:38.210Z,46.23
2023-02-08T23:30:09.518Z,41.07
2023-02-08T23:32:38.845Z,41.38
2023-02-08T23:35:09.688Z,39.77
2023-02-08T23:37:38.948Z,39.83
2023-02-08T23:40:07.849Z,38.63
2023-02-08T23:42:35.920Z,44.60
2023-02-08T23:45:05.793Z,40.77
2023-02-08T23:47:34.657Z,40.27
2023-02-08T23:50:03.390Z,37.90
2023-02-08T23:52:31.733Z,42.57
2023-02-08T23:55:00.967Z,43.17
2023-02-08T23:57:38.609Z,38.97
